createdAt,value
2022-07-29T00:01:04.212Z,63.28
2022-07-29T00:03:30.993Z,65.46
2022-07-29T00:05:57.484Z,68.46
2022-07-29T00:08:23.910Z,69.92
2022-07-29T00:10:51.735Z,72.17
2022-07-29T00:13:18.179Z,71.33
2022-07-29T00:15:58.405Z,72.16
2022-07-29T00:18:31.033Z,74.40
2022-07-29T00:20:57.632Z,73.85
2022-07-29T00:23:24.023Z,74.56
2022-07-29T00:25:50.450Z,73.66
2022-07-29T00:28:16.850Z,74.80
2022-07-29T00:30:44.271Z,76.96
2022-07-29T00:33:10.994Z,79.22
2022-07-29T00:35:46.895Z,79.14
2022-07-29T00:38:15.490Z,79.95
2022-07-29T00:40:43.948Z,80.13
2022-07-29T00:43:11.775Z,80.92
2022-07-29T00:45:38.428Z,79.70
2022-07-29T00:48:05.766Z,80.90
2022-07-29T00:50:33.364Z,81.80
2022-07-29T00:53:00.169Z,81.24
2022-07-29T00:55:26.651Z,81.15
2022-07-29T00:57:53.717Z,80.75
2022-07-29T01:00:23.297Z,81.09
2022-07-29T01:02:50.029Z,82.30
2022-07-29T01:05:19.321Z,82.59
2022-07-29T01:07:47.499Z,82.32
2022-07-29T01:10:15.555Z,83.66
2022-07-29T01:12:44.339Z,83.68
2022-07-29T01:15:11.172Z,84.32
2022-07-29T01:17:57.784Z,83.55
2022-07-29T01:21:01.644Z,83.79
2022-07-29T01:23:53.079Z,82.77
2022-07-29T01:26:32.591Z,82.83
2022-07-29T01:29:13.566Z,84.22
2022-07-29T01:31:59.021Z,83.74
2022-07-29T01:34:36.333Z,83.23
2022-07-29T01:37:22.181Z,81.89
2022-07-29T01:39:50.954Z,81.18
2022-07-29T01:42:42.947Z,81.66
2022-07-29T01:45:16.561Z,81.13
2022-07-29T01:47:47.532Z,81.75
2022-07-29T01:50:18.386Z,82.07
2022-07-29T01:52:50.457Z,82.30
2022-07-29T01:55:20.995Z,82.21
2022-07-29T01:57:48.999Z,81.90
2022-07-29T02:00:16.877Z,80.90
2022-07-29T02:02:45.114Z,80.98
2022-07-29T02:05:15.042Z,81.28
2022-07-29T02:07:43.808Z,81.14
2022-07-29T02:10:13.152Z,81.02
2022-07-29T02:12:41.603Z,81.18
2022-07-29T02:15:08.926Z,81.55
2022-07-29T02:18:00.771Z,81.99
2022-07-29T02:20:28.713Z,82.14
2022-07-29T02:22:56.562Z,83.20
2022-07-29T02:25:25.237Z,83.28
2022-07-29T02:28:05.575Z,83.23
2022-07-29T02:30:33.555Z,83.46
2022-07-29T02:33:01.315Z,83.89
2022-07-29T02:35:28.206Z,82.83
2022-07-29T02:38:22.402Z,81.78
2022-07-29T02:40:51.409Z,82.26
2022-07-29T02:43:20.057Z,82.35
2022-07-29T02:45:52.089Z,81.75
2022-07-29T02:48:22.639Z,81.52
2022-07-29T02:51:00.601Z,82.71
2022-07-29T02:53:27.937Z,83.30
2022-07-29T02:56:01.458Z,84.87
2022-07-29T02:58:30.877Z,83.72
2022-07-29T03:01:22.540Z,84.28
2022-07-29T03:03:51.771Z,84.38
2022-07-29T03:06:28.297Z,83.84
2022-07-29T03:09:09.134Z,83.38
2022-07-29T03:11:46.091Z,84.40
2022-07-29T03:14:17.614Z,84.53
2022-07-29T03:16:44.702Z,84.61
2022-07-29T03:19:11.619Z,84.00
2022-07-29T03:21:38.014Z,84.15
2022-07-29T03:24:09.768Z,84.50
2022-07-29T03:26:36.890Z,84.09
2022-07-29T03:29:03.339Z,84.37
2022-07-29T03:31:29.833Z,83.94
2022-07-29T03:33:56.311Z,83.42
2022-07-29T03:36:22.731Z,83.47
2022-07-29T03:38:50.163Z,83.39
2022-07-29T03:41:19.087Z,83.06
2022-07-29T03:43:52.588Z,83.06
2022-07-29T03:46:23.523Z,82.78
2022-07-29T03:48:53.831Z,82.88
2022-07-29T03:51:33.852Z,83.02
2022-07-29T03:54:06.387Z,82.58
2022-07-29T03:56:40.492Z,82.84
2022-07-29T03:59:08.108Z,83.97
2022-07-29T04:01:35.708Z,83.87
2022-07-29T04:04:02.866Z,83.64
2022-07-29T04:06:29.382Z,83.57
2022-07-29T04:08:55.799Z,83.25
2022-07-29T04:11:22.239Z,83.78
2022-07-29T04:13:48.666Z,84.53
2022-07-29T04:16:15.169Z,84.22
2022-07-29T04:18:41.687Z,83.88
2022-07-29T04:21:08.087Z,84.94
2022-07-29T04:23:34.574Z,84.03
2022-07-29T04:26:02.008Z,83.95
2022-07-29T04:28:28.397Z,84.76
2022-07-29T04:30:54.941Z,84.55
2022-07-29T04:33:21.381Z,83.38
2022-07-29T04:35:52.698Z,84.02
2022-07-29T04:38:22.112Z,84.83
2022-07-29T04:40:49.609Z,84.13
2022-07-29T04:43:16.625Z,84.47
2022-07-29T04:45:49.182Z,83.83
2022-07-29T04:48:15.575Z,84.23
2022-07-29T04:50:41.990Z,84.51
2022-07-29T04:53:08.830Z,84.24
2022-07-29T04:55:35.337Z,84.19
2022-07-29T04:58:05.390Z,84.58
2022-07-29T05:00:33.254Z,84.87
2022-07-29T05:03:00.536Z,85.42
2022-07-29T05:05:27.012Z,85.36
2022-07-29T05:07:53.582Z,85.04
2022-07-29T05:10:19.961Z,86.22
2022-07-29T05:12:46.381Z,86.77
2022-07-29T05:15:13.680Z,85.74
2022-07-29T05:17:40.105Z,87.75
2022-07-29T05:20:07.266Z,86.89
2022-07-29T05:22:33.846Z,88.06
2022-07-29T05:25:02.276Z,88.45
2022-07-29T05:27:32.091Z,87.87
2022-07-29T05:29:58.666Z,88.14
2022-07-29T05:32:25.297Z,90.05
2022-07-29T05:34:51.958Z,89.52
2022-07-29T05:37:20.219Z,89.72
2022-07-29T05:39:50.543Z,90.82
2022-07-29T05:42:22.590Z,89.90
2022-07-29T05:44:49.107Z,89.13
2022-07-29T05:47:15.546Z,89.74
2022-07-29T05:49:41.968Z,89.75
2022-07-29T05:52:08.393Z,90.03
2022-07-29T05:54:35.702Z,90.61
2022-07-29T05:57:02.239Z,90.54
2022-07-29T05:59:30.659Z,89.75
2022-07-29T06:01:58.326Z,87.85
2022-07-29T06:04:25.162Z,86.47
2022-07-29T06:06:51.623Z,86.41
2022-07-29T06:09:18.056Z,86.10
2022-07-29T06:11:44.435Z,82.85
2022-07-29T06:14:10.865Z,80.54
2022-07-29T06:16:37.374Z,80.66
2022-07-29T06:19:03.871Z,79.09
2022-07-29T06:21:30.275Z,77.65
2022-07-29T06:23:56.711Z,78.37
2022-07-29T06:26:30.675Z,76.29
2022-07-29T06:28:58.082Z,76.82
2022-07-29T06:31:24.558Z,77.37
2022-07-29T06:33:51.081Z,75.41
2022-07-29T06:36:17.653Z,75.09
2022-07-29T06:38:49.465Z,75.53
2022-07-29T06:41:18.430Z,76.96
2022-07-29T06:43:51.706Z,75.19
2022-07-29T06:46:21.717Z,73.99
2022-07-29T06:48:51.343Z,73.01
2022-07-29T06:51:22.521Z,72.10
2022-07-29T06:53:59.397Z,72.46
2022-07-29T06:56:29.095Z,70.85
2022-07-29T06:58:55.563Z,69.73
2022-07-29T07:01:22.138Z,69.52
2022-07-29T07:03:49.060Z,69.98
2022-07-29T07:06:15.644Z,69.60
2022-07-29T07:08:42.042Z,69.56
2022-07-29T07:11:09.046Z,68.16
2022-07-29T07:13:36.645Z,67.08
2022-07-29T07:16:03.972Z,64.61
2022-07-29T07:18:30.555Z,65.86
2022-07-29T07:20:57.803Z,65.71
2022-07-29T07:23:24.588Z,65.26
2022-07-29T07:25:51.151Z,66.50
2022-07-29T07:28:17.579Z,65.86
2022-07-29T07:30:44.474Z,65.49
2022-07-29T07:33:11.543Z,66.48
2022-07-29T07:35:37.955Z,65.94
2022-07-29T07:38:04.449Z,65.13
2022-07-29T07:40:30.916Z,65.76
2022-07-29T07:42:57.632Z,65.61
2022-07-29T07:45:24.636Z,65.05
2022-07-29T07:47:51.067Z,64.06
2022-07-29T07:50:19.189Z,62.98
2022-07-29T07:52:55.813Z,63.55
2022-07-29T07:55:22.397Z,63.30
2022-07-29T07:57:48.805Z,63.47
2022-07-29T08:00:16.800Z,63.19
2022-07-29T08:02:44.020Z,64.54
2022-07-29T08:05:12.721Z,63.36
2022-07-29T08:07:39.618Z,61.55
2022-07-29T08:10:06.551Z,62.21
2022-07-29T08:12:33.054Z,62.18
2022-07-29T08:14:59.595Z,62.42
2022-07-29T08:17:26.218Z,62.15
2022-07-29T08:19:52.618Z,62.60
2022-07-29T08:22:19.094Z,63.11
2022-07-29T08:24:47.165Z,63.03
2022-07-29T08:27:40.793Z,63.01
2022-07-29T08:30:01.234Z,61.36
2022-07-29T08:32:51.982Z,61.64
2022-07-29T08:35:15.734Z,61.18
2022-07-29T08:37:42.825Z,58.97
2022-07-29T08:40:09.641Z,59.94
2022-07-29T08:42:36.505Z,59.58
2022-07-29T08:45:04.401Z,59.23
2022-07-29T08:47:30.876Z,57.79
2022-07-29T08:49:57.345Z,57.54
2022-07-29T08:52:29.767Z,56.36
2022-07-29T08:54:56.382Z,58.31
2022-07-29T08:57:23.329Z,55.79
2022-07-29T08:59:53.338Z,55.45
2022-07-29T09:02:21.506Z,55.55
2022-07-29T09:04:48.603Z,56.01
2022-07-29T09:07:19.803Z,56.01
2022-07-29T09:09:46.574Z,56.27
2022-07-29T09:12:13.548Z,55.59
2022-07-29T09:14:56.050Z,55.84
2022-07-29T09:17:41.377Z,56.15
2022-07-29T09:20:19.230Z,55.12
2022-07-29T09:22:49.994Z,54.17
2022-07-29T09:25:33.604Z,53.34
2022-07-29T09:28:17.349Z,54.73
2022-07-29T09:30:59.116Z,55.59
2022-07-29T09:33:33.886Z,53.08
2022-07-29T09:36:08.813Z,53.24
2022-07-29T09:38:36.285Z,52.67
2022-07-29T09:41:06.233Z,53.09
2022-07-29T09:43:33.842Z,53.62
2022-07-29T09:46:13.716Z,52.28
2022-07-29T09:48:40.494Z,52.97
2022-07-29T09:51:20.597Z,56.43
2022-07-29T09:53:47.963Z,53.22
2022-07-29T09:56:15.177Z,52.69
2022-07-29T09:58:41.581Z,53.31
2022-07-29T10:01:08.019Z,52.57
2022-07-29T10:03:51.687Z,50.83
2022-07-29T10:06:18.184Z,52.62
2022-07-29T10:08:44.616Z,51.62
2022-07-29T10:11:13.804Z,51.97
2022-07-29T10:13:41.463Z,52.70
2022-07-29T10:16:08.388Z,53.42
2022-07-29T10:18:34.964Z,52.84
2022-07-29T10:21:02.174Z,52.95
2022-07-29T10:23:30.216Z,52.47
2022-07-29T10:26:13.469Z,51.23
2022-07-29T10:28:39.981Z,51.67
2022-07-29T10:31:08.949Z,51.47
2022-07-29T10:34:03.867Z,52.26
2022-07-29T10:36:53.911Z,50.69
2022-07-29T10:39:44.765Z,49.73
2022-07-29T10:45:12.151Z,49.66
2022-07-29T10:47:38.766Z,48.86
2022-07-29T10:50:07.069Z,49.99
2022-07-29T10:52:53.603Z,50.26
2022-07-29T10:55:43.806Z,50.14
2022-07-29T10:58:17.994Z,50.69
2022-07-29T11:00:50.357Z,48.61
2022-07-29T11:03:41.636Z,48.80
2022-07-29T11:06:17.066Z,48.52
2022-07-29T11:08:44.652Z,48.68
2022-07-29T11:11:29.555Z,48.18
2022-07-29T11:13:57.012Z,47.40
2022-07-29T11:16:25.087Z,48.06
2022-07-29T11:19:14.147Z,47.21
2022-07-29T11:21:54.114Z,47.91
2022-07-29T11:24:31.854Z,47.56
2022-07-29T11:27:18.417Z,45.62
2022-07-29T11:29:55.535Z,46.26
2022-07-29T11:32:24.188Z,46.25
2022-07-29T11:35:37.065Z,45.77
2022-07-29T11:38:23.482Z,46.17
2022-07-29T11:41:18.875Z,46.33
2022-07-29T11:43:50.876Z,45.57
2022-07-29T11:46:39.138Z,47.01
2022-07-29T11:49:09.225Z,47.73
2022-07-29T11:51:37.984Z,46.22
2022-07-29T11:54:27.624Z,45.98
2022-07-29T11:56:54.891Z,46.49
2022-07-29T11:59:22.294Z,47.00
2022-07-29T12:02:18.039Z,47.80
2022-07-29T12:04:55.261Z,46.65
2022-07-29T12:07:32.669Z,45.22
2022-07-29T12:10:02.811Z,46.74
2022-07-29T12:12:29.388Z,47.63
2022-07-29T12:14:56.347Z,48.13
2022-07-29T12:17:41.658Z,47.02
2022-07-29T12:20:08.894Z,47.63
2022-07-29T12:22:41.279Z,45.59
2022-07-29T12:25:32.375Z,46.56
2022-07-29T12:28:06.179Z,47.90
2022-07-29T12:30:39.904Z,44.76
2022-07-29T12:33:20.286Z,45.35
2022-07-29T12:36:03.446Z,44.86
2022-07-29T12:38:33.925Z,45.69
2022-07-29T12:41:00.498Z,45.40
2022-07-29T12:43:27.500Z,45.81
2022-07-29T12:45:56.321Z,46.96
2022-07-29T12:48:41.441Z,44.32
2022-07-29T12:51:09.707Z,43.98
2022-07-29T12:53:36.864Z,42.80
2022-07-29T12:56:15.509Z,43.89
2022-07-29T12:58:51.582Z,44.45
2022-07-29T13:01:20.273Z,45.85
2022-07-29T13:04:05.063Z,43.81
2022-07-29T13:06:45.739Z,43.31
2022-07-29T13:09:19.018Z,42.76
2022-07-29T13:11:50.625Z,43.39
2022-07-29T13:14:35.927Z,44.48
2022-07-29T13:17:08.536Z,43.40
2022-07-29T13:19:41.471Z,44.41
2022-07-29T13:22:09.308Z,44.13
2022-07-29T13:24:47.137Z,43.87
2022-07-29T13:27:16.265Z,44.83
2022-07-29T13:29:42.740Z,45.81
2022-07-29T13:32:09.410Z,44.91
2022-07-29T13:34:35.817Z,44.80
2022-07-29T13:37:02.210Z,43.73
2022-07-29T13:39:28.681Z,43.32
2022-07-29T13:41:56.328Z,43.15
2022-07-29T13:44:24.296Z,43.13
2022-07-29T13:46:50.950Z,43.29
2022-07-29T13:49:17.418Z,43.57
2022-07-29T13:51:44.119Z,44.29
2022-07-29T13:54:10.580Z,45.48
2022-07-29T13:56:36.974Z,47.00
2022-07-29T13:59:03.401Z,46.97
2022-07-29T14:01:31.284Z,47.58
2022-07-29T14:03:57.897Z,47.63
2022-07-29T14:06:24.616Z,48.63
2022-07-29T14:08:52.865Z,49.19
2022-07-29T14:11:19.283Z,47.49
2022-07-29T14:13:45.696Z,48.58
2022-07-29T14:16:12.402Z,53.50
2022-07-29T14:18:38.911Z,61.84
2022-07-29T14:21:05.381Z,57.97
2022-07-29T14:23:32.284Z,58.38
2022-07-29T14:25:58.794Z,60.46
2022-07-29T14:28:25.498Z,58.25
2022-07-29T14:30:52.074Z,58.38
2022-07-29T14:33:18.463Z,60.75
2022-07-29T14:35:45.395Z,61.16
2022-07-29T14:38:12.139Z,62.72
2022-07-29T14:40:38.934Z,61.21
2022-07-29T14:43:05.398Z,61.32
2022-07-29T14:45:32.391Z,60.85
2022-07-29T14:47:58.867Z,59.63
2022-07-29T14:50:32.047Z,58.08
2022-07-29T14:52:59.360Z,57.68
2022-07-29T14:55:25.991Z,57.88
2022-07-29T14:57:55.484Z,56.20
2022-07-29T15:00:27.379Z,55.64
2022-07-29T15:03:02.012Z,55.77
2022-07-29T15:05:29.827Z,55.57
2022-07-29T15:07:56.322Z,55.50
2022-07-29T15:10:22.728Z,54.43
2022-07-29T15:12:51.265Z,54.43
2022-07-29T15:15:17.706Z,53.55
2022-07-29T15:17:44.115Z,52.70
2022-07-29T15:20:12.056Z,53.16
2022-07-29T15:22:39.053Z,53.54
2022-07-29T15:25:06.440Z,54.50
2022-07-29T15:27:32.864Z,54.75
2022-07-29T15:29:59.298Z,54.13
2022-07-29T15:32:25.782Z,53.75
2022-07-29T15:34:52.166Z,53.47
2022-07-29T15:37:18.602Z,53.53
2022-07-29T15:39:45.006Z,54.35
2022-07-29T15:42:11.407Z,54.18
2022-07-29T15:44:37.783Z,55.24
2022-07-29T15:47:04.391Z,54.73
2022-07-29T15:49:48.056Z,53.80
2022-07-29T15:52:25.896Z,54.12
2022-07-29T15:54:57.512Z,53.84
2022-07-29T15:57:25.059Z,53.55
2022-07-29T15:59:51.939Z,54.48
2022-07-29T16:02:18.397Z,54.56
2022-07-29T16:04:45.008Z,53.26
2022-07-29T16:07:11.614Z,52.62
2022-07-29T16:09:38.177Z,52.66
2022-07-29T16:12:14.835Z,52.93
2022-07-29T16:14:45.163Z,53.96
2022-07-29T16:17:14.427Z,54.80
2022-07-29T16:19:42.010Z,55.52
2022-07-29T16:22:08.438Z,55.88
2022-07-29T16:24:34.883Z,56.25
2022-07-29T16:27:01.850Z,56.27
2022-07-29T16:29:29.015Z,56.59
2022-07-29T16:31:55.582Z,56.88
2022-07-29T16:34:22.008Z,56.81
2022-07-29T16:36:48.416Z,57.25
2022-07-29T16:39:14.865Z,56.93
2022-07-29T16:41:42.207Z,57.57
2022-07-29T16:44:08.628Z,57.82
2022-07-29T16:46:37.405Z,58.26
2022-07-29T16:49:05.654Z,57.83
2022-07-29T16:51:32.582Z,57.93
2022-07-29T16:53:59.084Z,59.24
2022-07-29T16:56:25.612Z,61.52
2022-07-29T16:58:52.041Z,63.97
2022-07-29T17:01:18.597Z,72.42
2022-07-29T17:04:06.250Z,77.53
2022-07-29T17:06:38.496Z,82.68
2022-07-29T17:09:06.816Z,85.62
2022-07-29T17:11:52.453Z,88.13
2022-07-29T17:14:25.365Z,90.63
2022-07-29T17:17:00.534Z,93.85
2022-07-29T17:19:31.571Z,94.49
2022-07-29T17:22:05.055Z,95.78
2022-07-29T17:24:35.704Z,97.15
2022-07-29T17:27:02.149Z,96.15
2022-07-29T17:29:28.596Z,98.11
2022-07-29T17:31:55.266Z,97.69
2022-07-29T17:34:21.665Z,98.33
2022-07-29T17:36:48.230Z,97.75
2022-07-29T17:39:14.666Z,98.69
2022-07-29T17:41:41.206Z,98.99
2022-07-29T17:44:09.291Z,100.00
2022-07-29T17:46:35.896Z,100.00
2022-07-29T17:49:02.701Z,99.91
2022-07-29T17:51:29.165Z,99.18
2022-07-29T17:53:55.704Z,99.58
2022-07-29T17:56:22.441Z,99.88
2022-07-29T17:58:48.901Z,100.00
2022-07-29T18:01:16.070Z,100.00
2022-07-29T18:03:43.132Z,99.72
2022-07-29T18:06:10.505Z,99.62
2022-07-29T18:08:37.676Z,98.81
2022-07-29T18:11:04.109Z,99.31
2022-07-29T18:13:32.287Z,98.85
2022-07-29T18:16:00.609Z,98.25
2022-07-29T18:18:27.779Z,97.50
2022-07-29T18:20:54.496Z,96.78
2022-07-29T18:23:21.185Z,95.13
2022-07-29T18:25:47.599Z,94.65
2022-07-29T18:28:14.100Z,95.24
2022-07-29T18:30:40.572Z,93.95
2022-07-29T18:33:21.752Z,93.69
2022-07-29T18:35:50.438Z,92.32
2022-07-29T18:38:17.393Z,91.97
2022-07-29T18:40:45.438Z,92.86
2022-07-29T18:43:12.541Z,92.60
2022-07-29T18:45:39.568Z,91.99
2022-07-29T18:48:08.357Z,92.26
2022-07-29T18:50:39.523Z,93.92
2022-07-29T18:53:06.046Z,92.62
2022-07-29T18:55:32.762Z,92.99
2022-07-29T18:57:59.344Z,91.31
2022-07-29T19:00:26.463Z,91.92
2022-07-29T19:02:53.369Z,92.51
2022-07-29T19:05:20.408Z,92.47
2022-07-29T19:07:46.870Z,90.32
2022-07-29T19:10:13.593Z,90.64
2022-07-29T19:12:40.173Z,90.92
2022-07-29T19:15:07.988Z,91.29
2022-07-29T19:17:34.492Z,90.99
2022-07-29T19:20:02.037Z,90.66
2022-07-29T19:22:28.504Z,89.72
2022-07-29T19:24:54.894Z,90.34
2022-07-29T19:27:21.327Z,89.69
2022-07-29T19:29:48.321Z,89.40
2022-07-29T19:32:24.873Z,89.77
2022-07-29T19:35:10.419Z,90.24
2022-07-29T19:37:37.326Z,90.06
2022-07-29T19:40:05.395Z,89.72
2022-07-29T19:42:31.893Z,89.04
2022-07-29T19:44:58.326Z,89.01
2022-07-29T19:47:25.128Z,89.70
2022-07-29T19:49:51.771Z,88.66
2022-07-29T19:52:18.255Z,88.33
2022-07-29T19:54:44.761Z,87.43
2022-07-29T19:57:11.301Z,87.35
2022-07-29T19:59:38.229Z,86.53
2022-07-29T20:02:04.967Z,86.27
2022-07-29T20:04:31.564Z,85.74
2022-07-29T20:07:01.353Z,85.98
2022-07-29T20:09:28.304Z,86.67
2022-07-29T20:11:55.033Z,87.42
2022-07-29T20:14:21.860Z,87.56
2022-07-29T20:16:49.026Z,88.38
2022-07-29T20:19:15.554Z,88.06
2022-07-29T20:21:41.942Z,87.63
2022-07-29T20:24:08.727Z,87.48
2022-07-29T20:26:35.411Z,88.13
2022-07-29T20:29:05.013Z,88.48
2022-07-29T20:31:34.839Z,89.29
2022-07-29T20:34:01.916Z,88.32
2022-07-29T20:36:28.933Z,88.88
2022-07-29T20:38:56.148Z,88.58
2022-07-29T20:41:22.895Z,89.34
2022-07-29T20:43:52.702Z,88.19
2022-07-29T20:46:19.181Z,87.35
2022-07-29T20:48:46.820Z,88.70
2022-07-29T20:51:14.120Z,88.27
2022-07-29T20:53:41.402Z,86.08
2022-07-29T20:56:08.001Z,85.27
2022-07-29T20:58:36.018Z,84.20
2022-07-29T21:01:02.979Z,83.79
2022-07-29T21:03:29.498Z,84.11
2022-07-29T21:05:56.364Z,83.97
2022-07-29T21:08:23.015Z,84.20
2022-07-29T21:10:49.417Z,84.19
2022-07-29T21:13:16.574Z,85.42
2022-07-29T21:15:46.075Z,84.96
2022-07-29T21:18:27.939Z,85.09
2022-07-29T21:20:55.022Z,85.63
2022-07-29T21:23:21.626Z,85.88
2022-07-29T21:25:48.070Z,86.58
2022-07-29T21:28:26.474Z,86.79
2022-07-29T21:30:54.777Z,87.56
2022-07-29T21:33:21.431Z,87.03
2022-07-29T21:38:35.099Z,86.79
2022-07-29T21:41:02.273Z,86.47
2022-07-29T21:43:28.864Z,85.13
2022-07-29T21:45:56.148Z,85.78
2022-07-29T21:48:23.978Z,85.84
2022-07-29T21:50:51.028Z,86.01
2022-07-29T21:53:18.473Z,85.83
2022-07-29T21:55:50.528Z,86.84
2022-07-29T21:58:17.684Z,86.99
2022-07-29T22:00:44.979Z,86.13
2022-07-29T22:03:11.383Z,85.77
2022-07-29T22:05:37.830Z,85.93
2022-07-29T22:08:04.746Z,86.26
2022-07-29T22:10:31.428Z,85.84
2022-07-29T22:12:59.093Z,86.11
2022-07-29T22:15:25.945Z,86.57
2022-07-29T22:17:53.071Z,86.63
2022-07-29T22:20:20.082Z,86.98
2022-07-29T22:22:46.902Z,86.85
2022-07-29T22:25:13.399Z,86.70
2022-07-29T22:27:40.145Z,87.45
2022-07-29T22:30:07.927Z,87.56
2022-07-29T22:32:34.547Z,87.62
2022-07-29T22:35:00.966Z,86.94
2022-07-29T22:37:27.408Z,87.56
2022-07-29T22:39:53.861Z,87.89
2022-07-29T22:42:21.011Z,87.11
2022-07-29T22:44:47.431Z,87.38
2022-07-29T22:47:13.852Z,87.41
2022-07-29T22:49:40.245Z,86.88
2022-07-29T22:52:06.669Z,86.91
2022-07-29T22:54:33.070Z,86.62
2022-07-29T22:57:01.018Z,87.14
2022-07-29T22:59:27.575Z,86.50
2022-07-29T23:01:54.398Z,86.73
2022-07-29T23:04:23.612Z,87.02
2022-07-29T23:06:51.093Z,86.08
2022-07-29T23:09:17.576Z,86.25
2022-07-29T23:11:44.059Z,86.35
2022-07-29T23:14:10.446Z,86.92
2022-07-29T23:16:37.111Z,87.18
2022-07-29T23:19:03.590Z,86.83
2022-07-29T23:21:30.032Z,87.11
2022-07-29T23:23:56.443Z,86.98
2022-07-29T23:26:22.841Z,86.93
2022-07-29T23:28:49.256Z,86.97
2022-07-29T23:31:15.900Z,86.44
2022-07-29T23:33:42.332Z,86.36
2022-07-29T23:36:08.749Z,86.07
2022-07-29T23:38:35.181Z,86.01
2022-07-29T23:41:02.243Z,87.35
2022-07-29T23:43:28.874Z,86.23
2022-07-29T23:45:55.971Z,85.67
2022-07-29T23:48:24.787Z,85.62
2022-07-29T23:50:51.202Z,85.68
2022-07-29T23:53:17.687Z,85.03
2022-07-29T23:55:44.155Z,84.83
2022-07-29T23:58:10.744Z,84.85
